sensor_id;sensor_type;location;lat;lon;timestamp;temperature;humidity
57753;DHT22;43583;53.132;6.574;2022-12-18T00:01:36;-2.50;99.90
57753;DHT22;43583;53.132;6.574;2022-12-18T00:04:05;-2.50;99.90
57753;DHT22;43583;53.132;6.574;2022-12-18T00:06:31;-2.50;99.90
57753;DHT22;43583;53.132;6.574;2022-12-18T00:08:59;-2.50;99.90
57753;DHT22;43583;53.132;6.574;2022-12-18T00:11:28;-2.50;99.90
57753;DHT22;43583;53.132;6.574;2022-12-18T00:13:55;-2.60;99.90
57753;DHT22;43583;53.132;6.574;2022-12-18T00:16:23;-2.60;99.90
57753;DHT22;43583;53.132;6.574;2022-12-18T00:18:51;-2.60;99.90
57753;DHT22;43583;53.132;6.574;2022-12-18T00:21:18;-2.60;99.90
57753;DHT22;43583;53.132;6.574;2022-12-18T00:23:44;-2.60;99.90
57753;DHT22;43583;53.132;6.574;2022-12-18T00:26:15;-2.60;99.90
57753;DHT22;43583;53.132;6.574;2022-12-18T00:28:42;-2.60;99.90
57753;DHT22;43583;53.132;6.574;2022-12-18T00:31:10;-2.60;99.90
57753;DHT22;43583;53.132;6.574;2022-12-18T00:33:36;-2.60;99.90
57753;DHT22;43583;53.132;6.574;2022-12-18T00:36:04;-2.70;99.90
57753;DHT22;43583;53.132;6.574;2022-12-18T00:38:30;-2.70;99.90
57753;DHT22;43583;53.132;6.574;2022-12-18T00:40:55;-2.70;99.90
57753;DHT22;43583;53.132;6.574;2022-12-18T00:43:21;-2.80;99.90
57753;DHT22;43583;53.132;6.574;2022-12-18T00:45:46;-2.80;99.90
57753;DHT22;43583;53.132;6.574;2022-12-18T00:48:12;-2.90;99.90
57753;DHT22;43583;53.132;6.574;2022-12-18T00:50:37;-2.90;99.90
57753;DHT22;43583;53.132;6.574;2022-12-18T00:53:03;-2.90;99.90
57753;DHT22;43583;53.132;6.574;2022-12-18T00:55:29;-2.90;99.90
57753;DHT22;43583;53.132;6.574;2022-12-18T00:57:54;-2.90;99.90
57753;DHT22;43583;53.132;6.574;2022-12-18T01:00:21;-2.90;99.90
57753;DHT22;43583;53.132;6.574;2022-12-18T01:02:46;-2.90;99.90
57753;DHT22;43583;53.132;6.574;2022-12-18T01:05:13;-2.90;99.90
57753;DHT22;43583;53.132;6.574;2022-12-18T01:07:38;-3.00;99.90
57753;DHT22;43583;53.132;6.574;2022-12-18T01:10:05;-3.00;99.90
57753;DHT22;43583;53.132;6.574;2022-12-18T01:12:31;-3.10;99.90
57753;DHT22;43583;53.132;6.574;2022-12-18T01:14:57;-3.10;99.90
57753;DHT22;43583;53.132;6.574;2022-12-18T01:17:22;-3.10;99.90
57753;DHT22;43583;53.132;6.574;2022-12-18T01:19:48;-3.20;99.90
57753;DHT22;43583;53.132;6.574;2022-12-18T01:22:14;-3.20;99.90
57753;DHT22;43583;53.132;6.574;2022-12-18T01:24:39;-3.20;99.90
57753;DHT22;43583;53.132;6.574;2022-12-18T01:27:05;-3.30;99.90
57753;DHT22;43583;53.132;6.574;2022-12-18T01:29:30;-3.30;99.90
57753;DHT22;43583;53.132;6.574;2022-12-18T01:31:56;-3.30;99.90
57753;DHT22;43583;53.132;6.574;2022-12-18T01:34:23;-3.40;99.90
57753;DHT22;43583;53.132;6.574;2022-12-18T01:36:49;-3.40;99.90
57753;DHT22;43583;53.132;6.574;2022-12-18T01:39:17;-3.40;99.90
57753;DHT22;43583;53.132;6.574;2022-12-18T01:41:43;-3.50;99.90
57753;DHT22;43583;53.132;6.574;2022-12-18T01:45:02;-3.50;99.90
57753;DHT22;43583;53.132;6.574;2022-12-18T01:47:48;-3.60;99.90
57753;DHT22;43583;53.132;6.574;2022-12-18T01:50:25;-3.60;99.90
57753;DHT22;43583;53.132;6.574;2022-12-18T01:52:58;-3.70;99.90
57753;DHT22;43583;53.132;6.574;2022-12-18T01:55:28;-3.70;99.90
57753;DHT22;43583;53.132;6.574;2022-12-18T01:57:57;-3.80;99.90
57753;DHT22;43583;53.132;6.574;2022-12-18T02:00:24;-3.90;99.90
57753;DHT22;43583;53.132;6.574;2022-12-18T02:02:50;-4.00;99.90
57753;DHT22;43583;53.132;6.574;2022-12-18T02:05:33;-4.00;99.90
57753;DHT22;43583;53.132;6.574;2022-12-18T02:10:54;-4.20;99.90
57753;DHT22;43583;53.132;6.574;2022-12-18T02:18:49;-4.30;99.90
57753;DHT22;43583;53.132;6.574;2022-12-18T02:24:18;-4.30;99.90
57753;DHT22;43583;53.132;6.574;2022-12-18T02:26:51;-4.40;99.90
57753;DHT22;43583;53.132;6.574;2022-12-18T02:29:25;-4.40;99.90
57753;DHT22;43583;53.132;6.574;2022-12-18T02:31:57;-4.50;99.90
57753;DHT22;43583;53.132;6.574;2022-12-18T02:34:27;-4.70;99.90
57753;DHT22;43583;53.132;6.574;2022-12-18T02:36:53;-4.80;99.90
57753;DHT22;43583;53.132;6.574;2022-12-18T02:39:20;-4.80;99.90
57753;DHT22;43583;53.132;6.574;2022-12-18T02:41:48;-4.80;99.90
57753;DHT22;43583;53.132;6.574;2022-12-18T02:44:14;-4.80;99.90
57753;DHT22;43583;53.132;6.574;2022-12-18T02:46:48;-4.80;99.90
57753;DHT22;43583;53.132;6.574;2022-12-18T02:49:40;-4.80;99.90
57753;DHT22;43583;53.132;6.574;2022-12-18T03:00:57;-4.60;99.90
57753;DHT22;43583;53.132;6.574;2022-12-18T03:03:29;-4.60;99.90
57753;DHT22;43583;53.132;6.574;2022-12-18T03:06:05;-4.60;99.90
57753;DHT22;43583;53.132;6.574;2022-12-18T03:08:54;-4.70;99.90
57753;DHT22;43583;53.132;6.574;2022-12-18T03:11:21;-4.70;99.90
57753;DHT22;43583;53.132;6.574;2022-12-18T03:14:07;-4.70;99.90
57753;DHT22;43583;53.132;6.574;2022-12-18T03:16:34;-4.70;99.90
57753;DHT22;43583;53.132;6.574;2022-12-18T03:19:11;-4.80;99.90
57753;DHT22;43583;53.132;6.574;2022-12-18T03:21:49;-4.80;99.90
57753;DHT22;43583;53.132;6.574;2022-12-18T03:24:17;-4.80;99.90
57753;DHT22;43583;53.132;6.574;2022-12-18T03:26:46;-4.90;99.90
57753;DHT22;43583;53.132;6.574;2022-12-18T03:29:22;-4.90;99.90
57753;DHT22;43583;53.132;6.574;2022-12-18T03:31:53;-4.90;99.90
57753;DHT22;43583;53.132;6.574;2022-12-18T03:34:24;-5.00;99.90
57753;DHT22;43583;53.132;6.574;2022-12-18T03:36:52;-5.00;99.90
57753;DHT22;43583;53.132;6.574;2022-12-18T03:39:19;-5.00;99.90
57753;DHT22;43583;53.132;6.574;2022-12-18T03:41:55;-4.90;99.90
57753;DHT22;43583;53.132;6.574;2022-12-18T03:44:55;-5.00;99.90
57753;DHT22;43583;53.132;6.574;2022-12-18T03:50:13;-5.10;99.90
57753;DHT22;43583;53.132;6.574;2022-12-18T03:52:42;-5.10;99.90
57753;DHT22;43583;53.132;6.574;2022-12-18T03:55:10;-5.20;99.90
57753;DHT22;43583;53.132;6.574;2022-12-18T03:57:37;-5.20;99.90
57753;DHT22;43583;53.132;6.574;2022-12-18T04:00:09;-5.20;99.90
57753;DHT22;43583;53.132;6.574;2022-12-18T04:02:37;-5.20;99.90
57753;DHT22;43583;53.132;6.574;2022-12-18T04:05:06;-5.20;99.90
57753;DHT22;43583;53.132;6.574;2022-12-18T04:07:32;-5.30;99.90
57753;DHT22;43583;53.132;6.574;2022-12-18T04:10:01;-5.30;99.90
57753;DHT22;43583;53.132;6.574;2022-12-18T04:12:29;-5.30;99.90
57753;DHT22;43583;53.132;6.574;2022-12-18T04:14:54;-5.30;99.90
57753;DHT22;43583;53.132;6.574;2022-12-18T04:17:20;-5.30;99.90
57753;DHT22;43583;53.132;6.574;2022-12-18T04:19:46;-5.30;99.90
57753;DHT22;43583;53.132;6.574;2022-12-18T04:22:12;-5.40;99.90
57753;DHT22;43583;53.132;6.574;2022-12-18T04:24:37;-5.40;99.90
57753;DHT22;43583;53.132;6.574;2022-12-18T04:27:03;-5.40;99.90
57753;DHT22;43583;53.132;6.574;2022-12-18T04:29:29;-5.40;99.90
57753;DHT22;43583;53.132;6.574;2022-12-18T04:31:55;-5.40;99.90
57753;DHT22;43583;53.132;6.574;2022-12-18T04:34:20;-5.50;99.90
57753;DHT22;43583;53.132;6.574;2022-12-18T04:36:46;-5.50;99.90
57753;DHT22;43583;53.132;6.574;2022-12-18T04:39:11;-5.50;99.90
57753;DHT22;43583;53.132;6.574;2022-12-18T04:41:37;-5.60;99.90
57753;DHT22;43583;53.132;6.574;2022-12-18T04:44:03;-5.60;99.90
57753;DHT22;43583;53.132;6.574;2022-12-18T04:46:28;-5.60;99.90
57753;DHT22;43583;53.132;6.574;2022-12-18T04:48:54;-5.60;99.90
57753;DHT22;43583;53.132;6.574;2022-12-18T04:51:20;-5.60;99.90
57753;DHT22;43583;53.132;6.574;2022-12-18T04:53:45;-5.60;99.90
57753;DHT22;43583;53.132;6.574;2022-12-18T04:56:13;-5.60;99.90
57753;DHT22;43583;53.132;6.574;2022-12-18T04:58:41;-5.60;99.90
57753;DHT22;43583;53.132;6.574;2022-12-18T05:01:07;-5.60;99.90
57753;DHT22;43583;53.132;6.574;2022-12-18T05:03:33;-5.60;99.90
57753;DHT22;43583;53.132;6.574;2022-12-18T05:05:59;-5.60;99.90
57753;DHT22;43583;53.132;6.574;2022-12-18T05:08:24;-5.70;99.90
57753;DHT22;43583;53.132;6.574;2022-12-18T05:11:01;-5.70;99.90
57753;DHT22;43583;53.132;6.574;2022-12-18T05:13:27;-5.70;99.90
57753;DHT22;43583;53.132;6.574;2022-12-18T05:15:53;-5.70;99.90
57753;DHT22;43583;53.132;6.574;2022-12-18T05:18:19;-5.70;99.90
57753;DHT22;43583;53.132;6.574;2022-12-18T05:20:44;-5.80;99.90
57753;DHT22;43583;53.132;6.574;2022-12-18T05:23:10;-5.80;99.90
57753;DHT22;43583;53.132;6.574;2022-12-18T05:25:35;-5.90;99.90
57753;DHT22;43583;53.132;6.574;2022-12-18T05:28:01;-5.80;99.90
57753;DHT22;43583;53.132;6.574;2022-12-18T05:30:26;-5.80;99.90
57753;DHT22;43583;53.132;6.574;2022-12-18T05:32:53;-5.80;99.90
57753;DHT22;43583;53.132;6.574;2022-12-18T05:35:19;-5.80;99.90
57753;DHT22;43583;53.132;6.574;2022-12-18T05:37:44;-5.90;99.90
57753;DHT22;43583;53.132;6.574;2022-12-18T05:40:11;-5.80;99.90
57753;DHT22;43583;53.132;6.574;2022-12-18T05:42:36;-5.80;99.90
57753;DHT22;43583;53.132;6.574;2022-12-18T05:45:02;-5.90;99.90
57753;DHT22;43583;53.132;6.574;2022-12-18T05:47:28;-5.90;99.90
57753;DHT22;43583;53.132;6.574;2022-12-18T05:49:54;-5.90;99.90
57753;DHT22;43583;53.132;6.574;2022-12-18T05:52:20;-5.90;99.90
57753;DHT22;43583;53.132;6.574;2022-12-18T05:54:46;-5.90;99.90
57753;DHT22;43583;53.132;6.574;2022-12-18T05:57:11;-6.00;99.90
57753;DHT22;43583;53.132;6.574;2022-12-18T05:59:37;-6.00;99.90
57753;DHT22;43583;53.132;6.574;2022-12-18T06:02:03;-6.10;99.90
57753;DHT22;43583;53.132;6.574;2022-12-18T06:04:28;-6.20;99.90
57753;DHT22;43583;53.132;6.574;2022-12-18T06:06:54;-6.30;99.90
57753;DHT22;43583;53.132;6.574;2022-12-18T06:09:19;-6.30;99.90
57753;DHT22;43583;53.132;6.574;2022-12-18T06:11:45;-6.40;99.90
57753;DHT22;43583;53.132;6.574;2022-12-18T06:14:10;-6.40;99.90
57753;DHT22;43583;53.132;6.574;2022-12-18T06:16:36;-6.40;99.90
57753;DHT22;43583;53.132;6.574;2022-12-18T06:19:04;-6.40;99.90
57753;DHT22;43583;53.132;6.574;2022-12-18T06:21:31;-6.40;99.90
57753;DHT22;43583;53.132;6.574;2022-12-18T06:23:57;-6.40;99.90
57753;DHT22;43583;53.132;6.574;2022-12-18T06:26:22;-6.40;99.90
57753;DHT22;43583;53.132;6.574;2022-12-18T06:28:48;-6.40;99.90
57753;DHT22;43583;53.132;6.574;2022-12-18T06:31:14;-6.40;99.90
57753;DHT22;43583;53.132;6.574;2022-12-18T06:33:40;-6.50;99.90
57753;DHT22;43583;53.132;6.574;2022-12-18T06:36:10;-6.60;99.90
57753;DHT22;43583;53.132;6.574;2022-12-18T06:38:37;-6.60;99.90
57753;DHT22;43583;53.132;6.574;2022-12-18T06:41:15;-6.60;99.90
57753;DHT22;43583;53.132;6.574;2022-12-18T06:43:41;-6.60;99.90
57753;DHT22;43583;53.132;6.574;2022-12-18T06:46:06;-6.60;99.90
57753;DHT22;43583;53.132;6.574;2022-12-18T06:48:32;-6.60;99.90
57753;DHT22;43583;53.132;6.574;2022-12-18T06:50:58;-6.60;99.90
57753;DHT22;43583;53.132;6.574;2022-12-18T06:53:24;-6.60;99.90
57753;DHT22;43583;53.132;6.574;2022-12-18T06:55:50;-6.60;99.90
57753;DHT22;43583;53.132;6.574;2022-12-18T06:58:15;-6.50;99.90
57753;DHT22;43583;53.132;6.574;2022-12-18T07:00:41;-6.50;99.90
57753;DHT22;43583;53.132;6.574;2022-12-18T07:03:07;-6.40;99.90
57753;DHT22;43583;53.132;6.574;2022-12-18T07:05:32;-6.40;99.90
57753;DHT22;43583;53.132;6.574;2022-12-18T07:07:58;-6.40;99.90
57753;DHT22;43583;53.132;6.574;2022-12-18T07:10:24;-6.40;99.90
57753;DHT22;43583;53.132;6.574;2022-12-18T07:12:49;-6.40;99.90
57753;DHT22;43583;53.132;6.574;2022-12-18T07:15:15;-6.40;99.90
57753;DHT22;43583;53.132;6.574;2022-12-18T07:17:41;-6.40;99.90
57753;DHT22;43583;53.132;6.574;2022-12-18T07:20:06;-6.40;99.90
57753;DHT22;43583;53.132;6.574;2022-12-18T07:22:32;-6.40;99.90
57753;DHT22;43583;53.132;6.574;2022-12-18T07:24:58;-6.30;99.90
57753;DHT22;43583;53.132;6.574;2022-12-18T07:27:24;-6.30;99.90
57753;DHT22;43583;53.132;6.574;2022-12-18T07:29:49;-6.30;99.90
57753;DHT22;43583;53.132;6.574;2022-12-18T07:32:15;-6.30;99.90
57753;DHT22;43583;53.132;6.574;2022-12-18T07:34:40;-6.30;99.90
57753;DHT22;43583;53.132;6.574;2022-12-18T07:37:06;-6.30;99.90
57753;DHT22;43583;53.132;6.574;2022-12-18T07:39:31;-6.20;99.90
57753;DHT22;43583;53.132;6.574;2022-12-18T07:41:57;-6.20;99.90
57753;DHT22;43583;53.132;6.574;2022-12-18T07:44:41;-6.20;99.90
57753;DHT22;43583;53.132;6.574;2022-12-18T07:47:07;-6.10;99.90
57753;DHT22;43583;53.132;6.574;2022-12-18T07:49:32;-6.10;99.90
57753;DHT22;43583;53.132;6.574;2022-12-18T07:51:58;-6.10;99.90
57753;DHT22;43583;53.132;6.574;2022-12-18T07:54:24;-6.00;99.90
57753;DHT22;43583;53.132;6.574;2022-12-18T07:56:50;-6.00;99.90
57753;DHT22;43583;53.132;6.574;2022-12-18T07:59:16;-5.90;99.90
57753;DHT22;43583;53.132;6.574;2022-12-18T08:01:41;-5.90;99.90
57753;DHT22;43583;53.132;6.574;2022-12-18T08:04:07;-5.90;99.90
57753;DHT22;43583;53.132;6.574;2022-12-18T08:06:32;-5.80;99.90
57753;DHT22;43583;53.132;6.574;2022-12-18T08:08:58;-5.80;99.90
57753;DHT22;43583;53.132;6.574;2022-12-18T08:11:25;-5.70;99.90
57753;DHT22;43583;53.132;6.574;2022-12-18T08:13:51;-5.70;99.90
57753;DHT22;43583;53.132;6.574;2022-12-18T08:16:17;-5.60;99.90
57753;DHT22;43583;53.132;6.574;2022-12-18T08:18:43;-5.60;99.90
57753;DHT22;43583;53.132;6.574;2022-12-18T08:21:17;-5.60;99.90
57753;DHT22;43583;53.132;6.574;2022-12-18T08:23:44;-5.50;99.90
57753;DHT22;43583;53.132;6.574;2022-12-18T08:26:11;-5.40;99.90
57753;DHT22;43583;53.132;6.574;2022-12-18T08:28:37;-5.40;99.90
57753;DHT22;43583;53.132;6.574;2022-12-18T08:31:03;-5.30;99.90
57753;DHT22;43583;53.132;6.574;2022-12-18T08:33:29;-5.30;99.90
57753;DHT22;43583;53.132;6.574;2022-12-18T08:35:54;-5.20;99.90
57753;DHT22;43583;53.132;6.574;2022-12-18T08:38:20;-5.10;99.90
57753;DHT22;43583;53.132;6.574;2022-12-18T08:40:46;-5.10;99.90
57753;DHT22;43583;53.132;6.574;2022-12-18T08:43:11;-5.10;99.90
57753;DHT22;43583;53.132;6.574;2022-12-18T08:45:55;-5.00;99.90
57753;DHT22;43583;53.132;6.574;2022-12-18T08:48:21;-4.90;99.90
57753;DHT22;43583;53.132;6.574;2022-12-18T08:50:54;-4.90;99.90
57753;DHT22;43583;53.132;6.574;2022-12-18T08:53:20;-4.80;99.90
57753;DHT22;43583;53.132;6.574;2022-12-18T08:55:46;-4.80;99.90
57753;DHT22;43583;53.132;6.574;2022-12-18T08:58:11;-4.70;99.90
57753;DHT22;43583;53.132;6.574;2022-12-18T09:00:37;-4.70;99.90
57753;DHT22;43583;53.132;6.574;2022-12-18T09:03:02;-4.60;99.90
57753;DHT22;43583;53.132;6.574;2022-12-18T09:05:28;-4.60;99.90
57753;DHT22;43583;53.132;6.574;2022-12-18T09:07:53;-4.40;99.90
57753;DHT22;43583;53.132;6.574;2022-12-18T09:10:19;-4.40;99.90
57753;DHT22;43583;53.132;6.574;2022-12-18T09:12:44;-4.30;99.90
57753;DHT22;43583;53.132;6.574;2022-12-18T09:15:10;-4.20;99.90
57753;DHT22;43583;53.132;6.574;2022-12-18T09:17:35;-4.20;99.90
57753;DHT22;43583;53.132;6.574;2022-12-18T09:20:01;-4.10;99.90
57753;DHT22;43583;53.132;6.574;2022-12-18T09:22:26;-4.00;99.90
57753;DHT22;43583;53.132;6.574;2022-12-18T09:24:52;-4.00;99.90
57753;DHT22;43583;53.132;6.574;2022-12-18T09:27:17;-3.90;99.90
57753;DHT22;43583;53.132;6.574;2022-12-18T09:29:43;-3.90;99.90
57753;DHT22;43583;53.132;6.574;2022-12-18T09:32:08;-3.90;99.90
57753;DHT22;43583;53.132;6.574;2022-12-18T09:34:34;-3.80;99.90
57753;DHT22;43583;53.132;6.574;2022-12-18T09:36:59;-3.70;99.90
57753;DHT22;43583;53.132;6.574;2022-12-18T09:39:25;-3.70;99.90
57753;DHT22;43583;53.132;6.574;2022-12-18T09:41:56;-3.60;99.90
57753;DHT22;43583;53.132;6.574;2022-12-18T09:44:26;-3.60;99.90
57753;DHT22;43583;53.132;6.574;2022-12-18T09:49:31;-3.60;99.90
57753;DHT22;43583;53.132;6.574;2022-12-18T09:52:05;-3.50;99.90
57753;DHT22;43583;53.132;6.574;2022-12-18T09:54:39;-3.50;99.90
57753;DHT22;43583;53.132;6.574;2022-12-18T09:57:05;-3.40;99.90
57753;DHT22;43583;53.132;6.574;2022-12-18T09:59:37;-3.40;99.90
57753;DHT22;43583;53.132;6.574;2022-12-18T10:02:21;-3.40;99.90
57753;DHT22;43583;53.132;6.574;2022-12-18T10:05:09;-3.50;99.90
57753;DHT22;43583;53.132;6.574;2022-12-18T10:16:17;-3.50;99.90
57753;DHT22;43583;53.132;6.574;2022-12-18T10:19:11;-3.50;99.90
57753;DHT22;43583;53.132;6.574;2022-12-18T10:24:45;-3.50;99.90
57753;DHT22;43583;53.132;6.574;2022-12-18T10:27:17;-3.40;99.90
57753;DHT22;43583;53.132;6.574;2022-12-18T10:29:44;-3.30;99.90
57753;DHT22;43583;53.132;6.574;2022-12-18T10:32:35;-3.20;99.90
57753;DHT22;43583;53.132;6.574;2022-12-18T10:35:00;-3.20;99.90
57753;DHT22;43583;53.132;6.574;2022-12-18T10:37:27;-3.20;99.90
57753;DHT22;43583;53.132;6.574;2022-12-18T10:40:12;-3.20;99.90
57753;DHT22;43583;53.132;6.574;2022-12-18T10:42:39;-3.10;99.90
57753;DHT22;43583;53.132;6.574;2022-12-18T10:45:15;-3.10;99.90
57753;DHT22;43583;53.132;6.574;2022-12-18T10:47:45;-3.10;99.90
57753;DHT22;43583;53.132;6.574;2022-12-18T10:50:27;-3.10;99.90
57753;DHT22;43583;53.132;6.574;2022-12-18T10:53:02;-3.00;99.90
57753;DHT22;43583;53.132;6.574;2022-12-18T10:55:34;-3.00;99.90
57753;DHT22;43583;53.132;6.574;2022-12-18T11:01:08;-2.80;99.90
57753;DHT22;43583;53.132;6.574;2022-12-18T11:06:19;-2.70;99.90
57753;DHT22;43583;53.132;6.574;2022-12-18T11:09:01;-2.60;99.90
57753;DHT22;43583;53.132;6.574;2022-12-18T11:11:28;-2.50;99.90
57753;DHT22;43583;53.132;6.574;2022-12-18T11:14:15;-2.50;99.90
57753;DHT22;43583;53.132;6.574;2022-12-18T11:16:46;-2.40;99.90
57753;DHT22;43583;53.132;6.574;2022-12-18T11:21:44;-2.30;99.90
57753;DHT22;43583;53.132;6.574;2022-12-18T11:26:49;-2.20;99.90
57753;DHT22;43583;53.132;6.574;2022-12-18T11:29:18;-2.20;99.90
57753;DHT22;43583;53.132;6.574;2022-12-18T11:31:47;-2.10;99.90
57753;DHT22;43583;53.132;6.574;2022-12-18T11:34:20;-2.10;99.90
57753;DHT22;43583;53.132;6.574;2022-12-18T11:36:48;-2.00;99.90
57753;DHT22;43583;53.132;6.574;2022-12-18T11:39:36;-2.00;99.90
57753;DHT22;43583;53.132;6.574;2022-12-18T11:42:14;-1.90;99.90
57753;DHT22;43583;53.132;6.574;2022-12-18T11:47:42;-1.80;99.90
57753;DHT22;43583;53.132;6.574;2022-12-18T11:50:21;-1.80;99.90
57753;DHT22;43583;53.132;6.574;2022-12-18T11:52:49;-1.70;99.90
57753;DHT22;43583;53.132;6.574;2022-12-18T11:55:20;-1.70;99.90
57753;DHT22;43583;53.132;6.574;2022-12-18T12:01:13;-1.60;99.90
57753;DHT22;43583;53.132;6.574;2022-12-18T12:03:54;-1.60;99.90
57753;DHT22;43583;53.132;6.574;2022-12-18T12:06:27;-1.60;99.90
57753;DHT22;43583;53.132;6.574;2022-12-18T12:12:10;-1.50;99.90
57753;DHT22;43583;53.132;6.574;2022-12-18T12:15:01;-1.50;99.90
57753;DHT22;43583;53.132;6.574;2022-12-18T12:20:39;-1.40;99.90
57753;DHT22;43583;53.132;6.574;2022-12-18T12:26:07;-1.30;99.90
57753;DHT22;43583;53.132;6.574;2022-12-18T12:28:57;-1.30;99.90
57753;DHT22;43583;53.132;6.574;2022-12-18T12:31:46;-1.20;99.90
57753;DHT22;43583;53.132;6.574;2022-12-18T12:37:35;-1.20;99.90
57753;DHT22;43583;53.132;6.574;2022-12-18T12:39:56;-1.10;99.90
57753;DHT22;43583;53.132;6.574;2022-12-18T12:42:39;-1.10;99.90
57753;DHT22;43583;53.132;6.574;2022-12-18T12:45:34;-1.10;99.90
57753;DHT22;43583;53.132;6.574;2022-12-18T12:48:04;-1.00;99.90
57753;DHT22;43583;53.132;6.574;2022-12-18T12:50:33;-1.00;99.90
57753;DHT22;43583;53.132;6.574;2022-12-18T12:53:01;-1.00;99.90
57753;DHT22;43583;53.132;6.574;2022-12-18T12:55:31;-0.90;99.90
57753;DHT22;43583;53.132;6.574;2022-12-18T12:58:33;-0.90;99.90
57753;DHT22;43583;53.132;6.574;2022-12-18T13:06:46;-0.80;99.90
57753;DHT22;43583;53.132;6.574;2022-12-18T13:09:13;-0.80;99.90
57753;DHT22;43583;53.132;6.574;2022-12-18T13:11:41;-0.80;99.90
57753;DHT22;43583;53.132;6.574;2022-12-18T13:19:44;-0.70;99.90
57753;DHT22;43583;53.132;6.574;2022-12-18T13:22:33;-0.60;99.90
57753;DHT22;43583;53.132;6.574;2022-12-18T13:24:59;-0.70;99.90
57753;DHT22;43583;53.132;6.574;2022-12-18T13:30:42;-0.70;99.90
57753;DHT22;43583;53.132;6.574;2022-12-18T13:41:01;-0.60;99.90
57753;DHT22;43583;53.132;6.574;2022-12-18T13:46:50;-0.60;99.90
57753;DHT22;43583;53.132;6.574;2022-12-18T13:49:23;-0.60;99.90
57753;DHT22;43583;53.132;6.574;2022-12-18T13:51:52;-0.70;99.90
57753;DHT22;43583;53.132;6.574;2022-12-18T13:56:47;-0.60;99.90
57753;DHT22;43583;53.132;6.574;2022-12-18T13:59:16;-0.60;99.90
57753;DHT22;43583;53.132;6.574;2022-12-18T14:01:54;-0.60;99.90
57753;DHT22;43583;53.132;6.574;2022-12-18T14:04:27;-0.60;99.90
57753;DHT22;43583;53.132;6.574;2022-12-18T14:07:14;-0.70;99.90
57753;DHT22;43583;53.132;6.574;2022-12-18T14:09:46;-0.70;99.90
57753;DHT22;43583;53.132;6.574;2022-12-18T14:12:29;-0.70;99.90
57753;DHT22;43583;53.132;6.574;2022-12-18T14:17:46;-0.70;99.90
57753;DHT22;43583;53.132;6.574;2022-12-18T14:20:15;-0.80;99.90
57753;DHT22;43583;53.132;6.574;2022-12-18T14:22:47;-0.80;99.90
57753;DHT22;43583;53.132;6.574;2022-12-18T14:28:04;-0.90;99.90
57753;DHT22;43583;53.132;6.574;2022-12-18T14:30:45;-0.90;99.90
57753;DHT22;43583;53.132;6.574;2022-12-18T14:33:40;-1.00;99.90
57753;DHT22;43583;53.132;6.574;2022-12-18T14:36:13;-1.00;99.90
57753;DHT22;43583;53.132;6.574;2022-12-18T14:38:40;-1.10;99.90
57753;DHT22;43583;53.132;6.574;2022-12-18T14:41:06;-1.10;99.90
57753;DHT22;43583;53.132;6.574;2022-12-18T14:43:37;-1.10;99.90
57753;DHT22;43583;53.132;6.574;2022-12-18T14:46:05;-1.10;99.90
57753;DHT22;43583;53.132;6.574;2022-12-18T14:48:42;-1.10;99.90
57753;DHT22;43583;53.132;6.574;2022-12-18T14:51:19;-1.10;99.90
57753;DHT22;43583;53.132;6.574;2022-12-18T14:54:05;-1.10;99.90
57753;DHT22;43583;53.132;6.574;2022-12-18T14:56:47;-1.10;99.90
57753;DHT22;43583;53.132;6.574;2022-12-18T15:04:45;-1.10;99.90
57753;DHT22;43583;53.132;6.574;2022-12-18T15:09:37;-1.20;99.90
57753;DHT22;43583;53.132;6.574;2022-12-18T15:12:03;-1.20;99.90
57753;DHT22;43583;53.132;6.574;2022-12-18T15:14:33;-1.30;99.90
57753;DHT22;43583;53.132;6.574;2022-12-18T15:17:00;-1.30;99.90
57753;DHT22;43583;53.132;6.574;2022-12-18T15:19:37;-1.30;99.90
57753;DHT22;43583;53.132;6.574;2022-12-18T15:22:04;-1.40;99.90
57753;DHT22;43583;53.132;6.574;2022-12-18T15:24:31;-1.40;99.90
57753;DHT22;43583;53.132;6.574;2022-12-18T15:26:58;-1.40;99.90
57753;DHT22;43583;53.132;6.574;2022-12-18T15:29:24;-1.40;99.90
57753;DHT22;43583;53.132;6.574;2022-12-18T15:31:59;-1.40;99.90
57753;DHT22;43583;53.132;6.574;2022-12-18T15:34:25;-1.40;99.90
57753;DHT22;43583;53.132;6.574;2022-12-18T15:36:52;-1.40;99.90
57753;DHT22;43583;53.132;6.574;2022-12-18T15:39:17;-1.40;99.90
57753;DHT22;43583;53.132;6.574;2022-12-18T15:41:43;-1.40;99.90
57753;DHT22;43583;53.132;6.574;2022-12-18T15:44:29;-1.40;99.90
57753;DHT22;43583;53.132;6.574;2022-12-18T15:46:54;-1.40;99.90
57753;DHT22;43583;53.132;6.574;2022-12-18T15:49:21;-1.40;99.90
57753;DHT22;43583;53.132;6.574;2022-12-18T15:51:57;-1.40;99.90
57753;DHT22;43583;53.132;6.574;2022-12-18T15:54:23;-1.40;99.90
57753;DHT22;43583;53.132;6.574;2022-12-18T15:57:11;-1.40;99.90
57753;DHT22;43583;53.132;6.574;2022-12-18T15:59:50;-1.40;99.90
57753;DHT22;43583;53.132;6.574;2022-12-18T16:02:17;-1.40;99.90
57753;DHT22;43583;53.132;6.574;2022-12-18T16:04:44;-1.40;99.90
57753;DHT22;43583;53.132;6.574;2022-12-18T16:07:11;-1.40;99.90
57753;DHT22;43583;53.132;6.574;2022-12-18T16:09:37;-1.50;99.90
57753;DHT22;43583;53.132;6.574;2022-12-18T16:12:04;-1.50;99.90
57753;DHT22;43583;53.132;6.574;2022-12-18T16:14:31;-1.50;99.90
57753;DHT22;43583;53.132;6.574;2022-12-18T16:16:59;-1.50;99.90
57753;DHT22;43583;53.132;6.574;2022-12-18T16:19:25;-1.50;99.90
57753;DHT22;43583;53.132;6.574;2022-12-18T16:21:52;-1.50;99.90
57753;DHT22;43583;53.132;6.574;2022-12-18T16:24:22;-1.50;99.90
57753;DHT22;43583;53.132;6.574;2022-12-18T16:26:48;-1.50;99.90
57753;DHT22;43583;53.132;6.574;2022-12-18T16:29:16;-1.50;99.90
57753;DHT22;43583;53.132;6.574;2022-12-18T16:31:42;-1.60;99.90
57753;DHT22;43583;53.132;6.574;2022-12-18T16:34:23;-1.60;99.90
57753;DHT22;43583;53.132;6.574;2022-12-18T16:36:51;-1.50;99.90
57753;DHT22;43583;53.132;6.574;2022-12-18T16:39:19;-1.60;99.90
57753;DHT22;43583;53.132;6.574;2022-12-18T16:41:45;-1.50;99.90
57753;DHT22;43583;53.132;6.574;2022-12-18T16:44:11;-1.50;99.90
57753;DHT22;43583;53.132;6.574;2022-12-18T16:46:37;-1.50;99.90
57753;DHT22;43583;53.132;6.574;2022-12-18T16:49:03;-1.50;99.90
57753;DHT22;43583;53.132;6.574;2022-12-18T16:51:29;-1.50;99.90
57753;DHT22;43583;53.132;6.574;2022-12-18T16:53:55;-1.50;99.90
57753;DHT22;43583;53.132;6.574;2022-12-18T16:56:22;-1.50;99.90
57753;DHT22;43583;53.132;6.574;2022-12-18T16:58:52;-1.40;99.90
57753;DHT22;43583;53.132;6.574;2022-12-18T17:01:18;-1.40;99.90
57753;DHT22;43583;53.132;6.574;2022-12-18T17:03:44;-1.40;99.90
57753;DHT22;43583;53.132;6.574;2022-12-18T17:06:09;-1.30;99.90
57753;DHT22;43583;53.132;6.574;2022-12-18T17:08:35;-1.30;99.90
57753;DHT22;43583;53.132;6.574;2022-12-18T17:11:05;-1.30;99.90
57753;DHT22;43583;53.132;6.574;2022-12-18T17:13:31;-1.30;99.90
57753;DHT22;43583;53.132;6.574;2022-12-18T17:16:05;-1.20;99.90
57753;DHT22;43583;53.132;6.574;2022-12-18T17:18:31;-1.20;99.90
57753;DHT22;43583;53.132;6.574;2022-12-18T17:21:01;-1.20;99.90
57753;DHT22;43583;53.132;6.574;2022-12-18T17:23:29;-1.20;99.90
57753;DHT22;43583;53.132;6.574;2022-12-18T17:25:58;-1.10;99.90
57753;DHT22;43583;53.132;6.574;2022-12-18T17:28:25;-1.10;99.90
57753;DHT22;43583;53.132;6.574;2022-12-18T17:30:52;-1.10;99.90
57753;DHT22;43583;53.132;6.574;2022-12-18T17:33:17;-1.10;99.90